Time;durP1;ratioP1;P1;durP2;ratioP2;P2;SDS_P1;SDS_P2;PMS_P1;PMS_P2;Temp;Humidity;BMP_temperature;BMP_pressure;BME280_temperature;BME280_humidity;BME280_pressure;Samples;Min_cycle;Max_cycle;Signal;HPM_P1;HPM_P2
2021/01/07 00:02:17;;;;;;;39.73;16.20;;;;;;;0.26;90.13;99651.16;120292;1148;23012;-64
2021/01/07 00:04:46;;;;;;;;;;;;;;;0.29;90.00;99644.81;120471;1147;26069;-63
2021/01/07 00:07:16;;;;;;;39.95;12.95;;;;;;;0.28;89.67;99640.53;120307;1148;21563;-64
2021/01/07 00:09:46;;;;;;;35.83;10.10;;;;;;;0.29;89.69;99649.55;120468;1146;22966;-64
2021/01/07 00:12:17;;;;;;;38.60;13.97;;;;;;;0.26;89.61;99648.42;120497;1147;22927;-64
2021/01/07 00:14:46;;;;;;;;;;;;;;;0.26;89.37;99640.19;120472;1146;26088;-65
2021/01/07 00:17:16;;;;;;;32.75;11.30;;;;;;;0.24;90.02;99644.55;120426;1146;21685;-63
2021/01/07 00:19:47;;;;;;;35.23;13.10;;;;;;;0.24;90.18;99636.31;120383;1148;23047;-64
2021/01/07 00:22:16;;;;;;;;;;;;;;;0.23;89.96;99638.27;120574;1147;23021;-65
2021/01/07 00:24:49;;;;;;;34.20;12.40;;;;;;;0.24;90.11;99641.80;120288;1148;21556;-64
2021/01/07 00:27:19;;;;;;;41.27;13.47;;;;;;;0.24;90.28;99648.06;120362;1147;23575;-64
2021/01/07 00:29:50;;;;;;;35.13;13.70;;;;;;;0.24;90.28;99650.81;120319;1146;22991;-65
2021/01/07 00:32:20;;;;;;;38.88;13.78;;;;;;;0.25;90.26;99638.62;120478;1148;23074;-64
2021/01/07 00:34:50;;;;;;;29.85;11.25;;;;;;;0.24;89.50;99648.06;120418;1147;22938;-64
2021/01/07 00:37:21;;;;;;;34.55;13.25;;;;;;;0.26;89.56;99644.89;120286;1147;25934;-63
2021/01/07 00:39:52;;;;;;;38.30;12.33;;;;;;;0.26;89.51;99647.64;120375;1147;22931;-63
2021/01/07 00:42:23;;;;;;;36.40;13.30;;;;;;;0.27;89.52;99651.95;120342;1147;23377;-64
2021/01/07 00:44:53;;;;;;;36.00;13.53;;;;;;;0.28;89.73;99646.02;120288;1148;23032;-66
2021/01/07 00:47:23;;;;;;;37.28;12.30;;;;;;;0.26;89.63;99645.67;120306;1147;22917;-65
2021/01/07 00:49:53;;;;;;;36.13;12.40;;;;;;;0.27;89.48;99646.45;120397;1147;22910;-64
2021/01/07 00:52:23;;;;;;;35.65;13.43;;;;;;;0.28;89.91;99645.24;120262;1148;23029;-64
2021/01/07 00:54:53;;;;;;;31.37;12.07;;;;;;;0.28;89.83;99650.73;120524;1146;27694;-64
2021/01/07 00:57:23;;;;;;;32.65;11.90;;;;;;;0.27;89.83;99647.20;120350;1146;25989;-63
2021/01/07 00:59:53;;;;;;;33.13;11.60;;;;;;;0.26;89.60;99651.16;120491;1148;22935;-64
2021/01/07 01:02:23;;;;;;;31.67;11.00;;;;;;;0.25;89.49;99652.34;120277;1148;23009;-64
2021/01/07 01:04:53;;;;;;;29.65;9.93;;;;;;;0.25;89.59;99644.11;120270;1145;22913;-65
2021/01/07 01:07:24;;;;;;;27.20;10.05;;;;;;;0.25;90.05;99646.86;120566;1146;22920;-64
2021/01/07 01:09:54;;;;;;;30.60;11.83;;;;;;;0.25;89.48;99655.09;120399;1146;22920;-63
2021/01/07 01:12:24;;;;;;;29.95;10.45;;;;;;;0.26;89.50;99655.88;120294;1147;22996;-65
2021/01/07 01:14:54;;;;;;;30.47;10.83;;;;;;;0.24;89.44;99648.06;120240;1148;22939;-64
2021/01/07 01:17:25;;;;;;;31.80;11.15;;;;;;;0.25;90.03;99655.09;120270;1147;23022;-66
2021/01/07 01:19:55;;;;;;;29.23;9.75;;;;;;;0.24;89.60;99655.52;120270;1147;27678;-64
2021/01/07 01:22:30;;;;;;;25.05;9.08;;;;;;;0.24;89.56;99659.05;120226;1148;22956;-64
2021/01/07 01:25:01;;;;;;;29.50;9.47;;;;;;;0.23;89.59;99662.23;120266;1148;26955;-65
2021/01/07 01:27:33;;;;;;;25.60;9.60;;;;;;;0.23;89.60;99662.98;120401;1147;22938;-64
2021/01/07 01:30:05;;;;;;;27.70;9.50;;;;;;;0.22;90.02;99655.95;120285;1148;23010;-64
2021/01/07 01:32:36;;;;;;;23.03;8.77;;;;;;;0.23;90.19;99656.73;120385;1147;23024;-64
2021/01/07 01:35:09;;;;;;;27.90;9.83;;;;;;;0.23;89.95;99657.48;120320;1148;22939;-64
2021/01/07 01:37:40;;;;;;;26.67;8.43;;;;;;;0.23;90.04;99659.48;120321;1146;22948;-65
2021/01/07 01:40:13;;;;;;;22.17;6.80;;;;;;;0.23;89.85;99660.23;120246;1147;22909;-65
2021/01/07 01:42:43;;;;;;;30.10;9.77;;;;;;;0.23;89.99;99660.23;120323;1147;22949;-64
2021/01/07 01:45:16;;;;;;;20.80;6.87;;;;;;;0.23;89.44;99660.23;120321;1147;23026;-63
2021/01/07 01:47:45;;;;;;;26.17;8.20;;;;;;;0.23;90.09;99662.98;120353;1147;22924;-63
2021/01/07 01:50:16;;;;;;;22.05;6.67;;;;;;;0.22;89.29;99664.19;120277;1147;22913;-64
2021/01/07 01:52:46;;;;;;;21.87;7.63;;;;;;;0.23;89.98;99667.72;120546;1146;24666;-64
2021/01/07 01:55:16;;;;;;;22.83;7.73;;;;;;;0.23;89.80;99660.23;120289;1146;22918;-63
2021/01/07 01:57:46;;;;;;;;;;;;;;;0.24;89.63;99666.50;120452;1147;22998;-64
2021/01/07 02:00:18;;;;;;;20.50;6.35;;;;;;;0.23;89.63;99660.23;120404;1147;21557;-64
2021/01/07 02:02:48;;;;;;;24.60;6.77;;;;;;;0.23;90.12;99652.00;120376;1148;22944;-66
2021/01/07 02:05:18;;;;;;;20.82;6.25;;;;;;;0.24;89.67;99664.55;120292;1146;22913;-64
2021/01/07 02:07:49;;;;;;;21.95;6.67;;;;;;;0.23;89.37;99660.23;120274;1146;27695;-63
2021/01/07 02:10:19;;;;;;;23.87;7.47;;;;;;;0.23;89.88;99662.98;120416;1148;27385;-64
2021/01/07 02:12:51;;;;;;;19.77;6.65;;;;;;;0.24;89.91;99667.28;120366;1147;23074;-64
2021/01/07 02:15:22;;;;;;;23.17;6.97;;;;;;;0.25;90.17;99662.58;120788;1146;23077;-64
2021/01/07 02:17:52;;;;;;;20.50;7.53;;;;;;;0.25;89.64;99655.09;120345;1146;22927;-65
2021/01/07 02:20:28;;;;;;;24.23;7.07;;;;;;;0.25;89.92;99657.84;120291;1148;22998;-65
2021/01/07 02:22:58;;;;;;;22.77;8.13;;;;;;;0.24;89.53;99653.56;120316;1148;26367;-63
2021/01/07 02:25:28;;;;;;;23.65;7.17;;;;;;;0.25;89.78;99648.85;120399;1146;25957;-64
2021/01/07 02:27:57;;;;;;;;;;;;;;;0.25;89.83;99646.86;120368;1146;23103;-64
2021/01/07 02:30:28;;;;;;;21.97;6.50;;;;;;;0.24;89.61;99650.03;120266;1148;21575;-63
2021/01/07 02:32:57;;;;;;;;;;;;;;;0.24;89.71;99647.29;120328;1147;26182;-65
2021/01/07 02:35:29;;;;;;;22.93;7.80;;;;;;;0.22;90.16;99653.21;120508;1148;21670;-64
2021/01/07 02:37:58;;;;;;;;;;;;;;;0.22;89.46;99642.23;120391;1146;22916;-65
2021/01/07 02:40:28;;;;;;;22.95;7.90;;;;;;;0.22;90.27;99652.43;120357;1148;21595;-65
2021/01/07 02:42:58;;;;;;;26.00;9.03;;;;;;;0.23;89.48;99638.27;120292;1147;23022;-64
2021/01/07 02:45:29;;;;;;;30.40;10.40;;;;;;;0.24;89.75;99645.33;120620;1147;22917;-63
2021/01/07 02:47:59;;;;;;;26.17;10.33;;;;;;;0.24;89.92;99645.33;120389;1146;25957;-66
2021/01/07 02:50:29;;;;;;;29.37;9.27;;;;;;;0.23;90.06;99652.00;120245;1147;27640;-64
2021/01/07 02:52:59;;;;;;;23.05;7.95;;;;;;;0.22;89.70;99646.94;120346;1148;22938;-66
2021/01/07 02:55:29;;;;;;;20.40;7.33;;;;;;;0.20;90.17;99650.12;120220;1148;25811;-65
2021/01/07 02:57:59;;;;;;;26.17;9.40;;;;;;;0.19;89.88;99645.81;120349;1147;23021;-65
2021/01/07 03:00:29;;;;;;;25.10;8.98;;;;;;;0.20;90.15;99654.83;120303;1148;27288;-65
2021/01/07 03:02:59;;;;;;;25.90;9.10;;;;;;;0.19;90.12;99651.30;120261;1148;24557;-64
2021/01/07 03:05:30;;;;;;;26.03;10.07;;;;;;;0.19;90.39;99645.06;120270;1147;22920;-65
2021/01/07 03:08:01;;;;;;;30.50;10.53;;;;;;;0.18;90.38;99644.27;120410;1148;22910;-64
2021/01/07 03:10:31;;;;;;;29.40;10.20;;;;;;;0.18;89.82;99648.98;120318;1146;23022;-64
2021/01/07 03:13:01;;;;;;;27.40;8.95;;;;;;;0.18;89.75;99643.50;120371;1147;22913;-64
2021/01/07 03:15:31;;;;;;;26.35;9.33;;;;;;;0.16;89.79;99643.92;120241;1148;23032;-64
2021/01/07 03:18:00;;;;;;;;;;;;;;;0.15;90.41;99644.33;120306;1147;26730;-65
2021/01/07 03:20:30;;;;;;;25.63;9.37;;;;;;;0.14;89.63;99649.06;120205;1148;21631;-64
2021/01/07 03:23:01;;;;;;;26.57;10.00;;;;;;;0.14;89.70;99642.80;120312;1147;27339;-64
2021/01/07 03:25:31;;;;;;;24.83;8.93;;;;;;;0.14;90.44;99646.32;120243;1148;22913;-64
2021/01/07 03:28:01;;;;;;;24.40;8.35;;;;;;;0.14;89.67;99645.54;120280;1148;23007;-65
2021/01/07 03:30:32;;;;;;;27.15;8.55;;;;;;;0.13;90.01;99647.50;120364;1147;22952;-64
2021/01/07 03:33:02;;;;;;;26.93;9.10;;;;;;;0.12;89.95;99643.23;120281;1148;22920;-64
2021/01/07 03:35:33;;;;;;;23.95;7.92;;;;;;;0.14;89.99;99642.80;120376;1148;28439;-64
2021/01/07 03:38:01;;;;;;;;;;;;;;;0.15;90.25;99649.81;120558;1146;22973;-64
2021/01/07 03:40:31;;;;;;;21.93;7.57;;;;;;;0.12;90.02;99648.72;120254;1147;24272;-65
2021/01/07 03:43:01;;;;;;;25.48;8.38;;;;;;;0.14;90.46;99649.06;120185;1148;22925;-64
2021/01/07 03:45:32;;;;;;;25.08;8.20;;;;;;;0.14;90.32;99651.03;120215;1146;23003;-63
2021/01/07 03:48:02;;;;;;;25.20;9.00;;;;;;;0.15;90.35;99644.33;120364;1146;23026;-64
2021/01/07 03:50:32;;;;;;;25.87;7.60;;;;;;;0.16;89.82;99654.12;120320;1146;23396;-64
2021/01/07 03:53:02;;;;;;;22.48;7.72;;;;;;;0.17;90.20;99650.17;120195;1147;24547;-64
2021/01/07 03:55:32;;;;;;;22.55;7.55;;;;;;;0.15;89.73;99647.86;120356;1146;26921;-65
2021/01/07 03:58:01;;;;;;;;;;;;;;;0.14;90.23;99654.55;120322;1147;22912;-65
2021/01/07 04:00:31;;;;;;;19.10;6.40;;;;;;;0.14;89.97;99651.81;120241;1147;21560;-63
2021/01/07 04:03:01;;;;;;;21.55;7.08;;;;;;;0.13;89.76;99655.73;120250;1147;27379;-64
2021/01/07 04:05:31;;;;;;;21.23;6.70;;;;;;;0.13;90.24;99654.95;120277;1147;23077;-65
2021/01/07 04:08:01;;;;;;;20.62;6.85;;;;;;;0.12;90.14;99653.42;120278;1148;22909;-64
2021/01/07 04:10:31;;;;;;;21.42;6.70;;;;;;;0.11;89.62;99649.90;120255;1148;26891;-65
2021/01/07 04:13:01;;;;;;;19.62;6.55;;;;;;;0.11;89.99;99657.34;120287;1146;24717;-65
2021/01/07 04:15:31;;;;;;;19.85;7.05;;;;;;;0.09;90.21;99646.80;120322;1148;23011;-65
2021/01/07 04:18:02;;;;;;;18.02;6.12;;;;;;;0.09;90.07;99648.77;120434;1147;22909;-64
2021/01/07 04:20:32;;;;;;;19.55;6.80;;;;;;;0.09;90.31;99646.80;120414;1146;22924;-64
2021/01/07 04:23:03;;;;;;;22.45;7.42;;;;;;;0.09;89.94;99651.52;120374;1148;22917;-65
2021/01/07 04:25:32;;;;;;;23.55;6.85;;;;;;;0.08;89.85;99648.02;120316;1146;22943;-65
2021/01/07 04:28:03;;;;;;;19.25;4.95;;;;;;;0.07;89.71;99651.94;120252;1148;23084;-65
2021/01/07 04:30:32;;;;;;;;;;;;;;;0.06;89.92;99647.66;120319;1147;22936;-64
2021/01/07 04:33:02;;;;;;;20.07;5.80;;;;;;;0.05;90.24;99654.33;120276;1148;21572;-65
2021/01/07 04:35:32;;;;;;;15.48;4.97;;;;;;;0.07;89.94;99656.65;120309;1148;22993;-65
2021/01/07 04:38:02;;;;;;;18.45;4.90;;;;;;;0.06;90.14;99646.88;120243;1146;27735;-64
2021/01/07 04:40:32;;;;;;;18.17;5.72;;;;;;;0.04;89.51;99639.08;120255;1148;22927;-64
2021/01/07 04:43:02;;;;;;;19.85;6.87;;;;;;;0.03;89.98;99643.00;120253;1147;22880;-63
2021/01/07 04:45:33;;;;;;;18.77;5.62;;;;;;;0.05;90.24;99643.36;120268;1148;24345;-66
2021/01/07 04:48:02;;;;;;;;;;;;;;;0.03;90.05;99644.97;120743;1146;23097;-64
2021/01/07 04:50:32;;;;;;;17.97;5.67;;;;;;;0.01;89.59;99645.40;120359;1148;21560;-64
2021/01/07 04:53:03;;;;;;;14.05;4.10;;;;;;;0.02;89.65;99640.69;120243;1146;22938;-65
2021/01/07 04:55:34;;;;;;;16.20;4.95;;;;;;;0.03;90.21;99650.45;120504;1146;23028;-64
2021/01/07 04:58:04;;;;;;;16.70;4.90;;;;;;;0.03;90.23;99647.72;120342;1146;27678;-63
2021/01/07 05:00:35;;;;;;;18.40;5.20;;;;;;;0.01;90.21;99650.89;120279;1147;23010;-62
2021/01/07 05:03:06;;;;;;;20.30;6.27;;;;;;;0.02;90.21;99657.16;120379;1147;23374;-64
2021/01/07 05:05:36;;;;;;;20.70;6.03;;;;;;;0.02;90.09;99652.45;120346;1147;22938;-63
2021/01/07 05:08:06;;;;;;;19.65;6.00;;;;;;;0.03;89.49;99653.20;120405;1147;22938;-63
2021/01/07 05:10:37;;;;;;;17.07;5.40;;;;;;;0.01;89.59;99656.38;120500;1146;23064;-63
2021/01/07 05:13:08;;;;;;;16.60;5.83;;;;;;;0.00;90.14;99655.59;120615;1148;22934;-64
2021/01/07 05:15:41;;;;;;;18.57;5.43;;;;;;;-0.01;89.87;99656.02;120423;1147;22969;-63
2021/01/07 05:18:13;;;;;;;17.60;5.60;;;;;;;0.00;89.94;99652.09;120462;1148;22916;-65
2021/01/07 05:20:43;;;;;;;17.17;5.22;;;;;;;-0.01;89.93;99658.77;120464;1147;27396;-66
2021/01/07 05:23:14;;;;;;;19.77;5.65;;;;;;;-0.02;89.69;99657.98;120354;1147;22913;-65
2021/01/07 05:25:45;;;;;;;19.30;5.53;;;;;;;-0.01;90.11;99653.28;120363;1147;22949;-63
2021/01/07 05:28:16;;;;;;;19.17;6.03;;;;;;;-0.01;89.39;99656.02;120541;1147;22966;-63
2021/01/07 05:30:47;;;;;;;19.07;6.10;;;;;;;-0.02;89.27;99657.98;120296;1148;22931;-64
2021/01/07 05:33:19;;;;;;;16.70;5.33;;;;;;;-0.03;90.08;99658.41;120265;1148;24339;-63
2021/01/07 05:35:51;;;;;;;17.90;5.30;;;;;;;-0.05;89.58;99658.84;120430;1146;23009;-64
2021/01/07 05:38:21;;;;;;;20.33;6.13;;;;;;;-0.04;89.16;99662.34;120414;1146;22909;-64
2021/01/07 05:40:51;;;;;;;18.67;5.15;;;;;;;-0.07;89.14;99661.23;120273;1147;23381;-64
2021/01/07 05:43:25;;;;;;;;;;;;;;;-0.08;89.30;99664.38;120582;1146;22924;-63
2021/01/07 05:45:58;;;;;;;18.57;5.83;;;;;;;-0.10;90.05;99664.03;120306;1148;22018;-66
2021/01/07 05:48:33;;;;;;;20.93;5.97;;;;;;;-0.11;90.11;99670.73;120302;1148;23036;-66
2021/01/07 05:51:05;;;;;;;18.93;6.50;;;;;;;-0.13;90.04;99679.38;120398;1148;24574;-64
2021/01/07 05:53:36;;;;;;;19.57;6.17;;;;;;;-0.15;89.36;99670.02;120419;1146;22918;-66
2021/01/07 05:56:06;;;;;;;;;;;;;;;-0.15;89.67;99668.06;120459;1146;22917;-62
2021/01/07 05:58:36;;;;;;;21.60;6.47;;;;;;;-0.17;89.79;99659.47;120428;1147;23862;-63
2021/01/07 06:01:06;;;;;;;18.90;5.53;;;;;;;-0.18;89.90;99666.14;120356;1146;22991;-63
2021/01/07 06:03:38;;;;;;;18.27;5.10;;;;;;;-0.19;89.71;99670.06;120346;1146;22928;-65
2021/01/07 06:06:10;;;;;;;19.50;6.20;;;;;;;-0.18;89.75;99670.84;120369;1147;27318;-63
2021/01/07 06:08:47;;;;;;;18.63;5.53;;;;;;;-0.18;90.08;99681.81;120594;1146;22942;-63
2021/01/07 06:11:18;;;;;;;20.33;6.43;;;;;;;-0.19;89.69;99669.31;120257;1148;22947;-63
2021/01/07 06:13:50;;;;;;;20.63;7.30;;;;;;;-0.19;89.52;99672.80;120299;1148;24554;-62
2021/01/07 06:16:22;;;;;;;17.47;5.60;;;;;;;-0.18;90.41;99670.84;120241;1146;22893;-61
2021/01/07 06:18:54;;;;;;;16.65;5.15;;;;;;;-0.19;90.31;99672.05;120352;1146;22913;-62
2021/01/07 06:21:27;;;;;;;19.93;6.03;;;;;;;-0.20;89.58;99676.77;120429;1146;22944;-64
2021/01/07 06:23:59;;;;;;;18.67;5.83;;;;;;;-0.20;89.71;99675.98;120320;1147;22929;-64
2021/01/07 06:26:29;;;;;;;16.87;5.17;;;;;;;-0.20;90.28;99678.72;120481;1146;22913;-63
2021/01/07 06:29:00;;;;;;;19.98;6.10;;;;;;;-0.19;90.01;99677.55;120281;1148;24691;-64
2021/01/07 06:31:36;;;;;;;17.67;5.27;;;;;;;-0.19;90.25;99686.52;120406;1147;22942;-63
2021/01/07 06:34:07;;;;;;;18.73;5.73;;;;;;;-0.18;89.90;99688.09;120360;1147;22926;-62
2021/01/07 06:36:41;;;;;;;19.70;5.97;;;;;;;-0.18;89.66;99690.05;120494;1146;23002;-63
2021/01/07 06:39:12;;;;;;;18.53;5.87;;;;;;;-0.17;90.17;99694.36;120308;1147;22989;-65
2021/01/07 06:41:54;;;;;;;20.60;6.30;;;;;;;-0.19;89.46;99694.75;120393;1146;22923;-62
2021/01/07 06:44:25;;;;;;;19.53;6.00;;;;;;;-0.17;89.84;99695.14;120448;1147;25963;-63
2021/01/07 06:46:55;;;;;;;19.65;5.95;;;;;;;-0.18;89.97;99703.77;120319;1147;22909;-64
2021/01/07 06:49:29;;;;;;;17.77;5.58;;;;;;;-0.18;89.98;99701.02;120315;1148;25509;-63
2021/01/07 06:52:02;;;;;;;18.83;6.57;;;;;;;-0.16;89.54;99702.16;120514;1146;22976;-63
2021/01/07 06:54:34;;;;;;;22.67;6.83;;;;;;;-0.14;89.92;99699.77;120562;1146;26610;-62
2021/01/07 06:57:06;;;;;;;18.20;6.17;;;;;;;-0.12;89.55;99705.61;120368;1146;22913;-64
2021/01/07 06:59:36;;;;;;;22.13;7.33;;;;;;;-0.09;89.66;99713.02;120377;1147;26082;-63
2021/01/07 07:02:07;;;;;;;21.73;6.05;;;;;;;-0.08;89.79;99708.28;120403;1148;22925;-65
2021/01/07 07:04:40;;;;;;;;;;;;;;;-0.08;89.51;99717.29;120436;1148;22919;-64
2021/01/07 07:07:46;;;;;;;19.10;5.57;;;;;;;-0.06;89.82;99719.61;120318;1147;25815;-66
2021/01/07 07:11:01;;;;;;;19.17;5.20;;;;;;;-0.05;89.61;99716.47;120343;1147;22974;-64
2021/01/07 07:13:32;;;;;;;19.53;5.97;;;;;;;-0.04;89.35;99723.48;120327;1148;23006;-63
2021/01/07 07:16:03;;;;;;;19.43;6.70;;;;;;;-0.04;89.52;99714.47;120366;1147;26008;-64
2021/01/07 07:18:39;;;;;;;23.80;7.70;;;;;;;-0.04;89.52;99725.45;120413;1147;23045;-63
2021/01/07 07:21:24;;;;;;;21.37;6.30;;;;;;;-0.02;89.28;99729.33;120396;1146;22916;-64
2021/01/07 07:23:56;;;;;;;26.30;8.45;;;;;;;-0.01;89.97;99732.86;120483;1148;23370;-64
2021/01/07 07:26:34;;;;;;;26.97;9.67;;;;;;;0.01;89.64;99738.70;120460;1146;22928;-64
2021/01/07 07:29:07;;;;;;;24.20;7.50;;;;;;;0.02;89.59;99742.23;120293;1148;23002;-64
2021/01/07 07:31:42;;;;;;;22.43;7.57;;;;;;;-0.01;89.95;99736.38;121136;1146;26405;-63
2021/01/07 07:34:14;;;;;;;20.07;7.00;;;;;;;-0.01;89.48;99743.83;120422;1148;23051;-65
2021/01/07 07:36:45;;;;;;;23.57;7.20;;;;;;;-0.01;89.38;99749.32;120378;1147;23028;-64
2021/01/07 07:39:16;;;;;;;19.63;6.10;;;;;;;-0.01;89.33;99744.61;120267;1147;22917;-63
2021/01/07 07:41:46;;;;;;;22.40;7.10;;;;;;;0.01;89.25;99752.42;120388;1147;22918;-63
2021/01/07 07:44:16;;;;;;;;;;;;;;;0.00;89.68;99745.39;120364;1147;27328;-65
2021/01/07 07:46:46;;;;;;;19.37;6.43;;;;;;;-0.01;89.53;99750.10;120424;1146;24574;-64
2021/01/07 07:49:17;;;;;;;21.65;6.60;;;;;;;-0.01;89.42;99747.36;120307;1148;22952;-63
2021/01/07 07:51:52;;;;;;;23.37;7.00;;;;;;;0.02;89.28;99751.23;120311;1147;24551;-62
2021/01/07 07:54:22;;;;;;;23.13;6.50;;;;;;;0.03;89.95;99750.03;121553;1146;23016;-64
2021/01/07 07:57:01;;;;;;;21.70;6.78;;;;;;;0.04;89.96;99756.30;120408;1146;22917;-64
2021/01/07 07:59:31;;;;;;;20.90;6.70;;;;;;;0.05;89.23;99755.88;120324;1147;27227;-63
2021/01/07 08:02:01;;;;;;;21.60;6.75;;;;;;;0.06;89.84;99760.18;120390;1148;24440;-63
2021/01/07 08:04:32;;;;;;;20.85;6.97;;;;;;;0.05;89.27;99761.36;120455;1148;22924;-63
2021/01/07 08:07:10;;;;;;;24.33;8.33;;;;;;;0.08;89.82;99760.53;120464;1146;22924;-64
2021/01/07 08:09:41;;;;;;;20.40;6.23;;;;;;;0.11;90.00;99765.17;120418;1146;27706;-62
2021/01/07 08:12:16;;;;;;;26.43;8.30;;;;;;;0.12;89.19;99765.95;120553;1147;26350;-63
2021/01/07 08:14:51;;;;;;;24.03;7.77;;;;;;;0.14;90.00;99763.56;120268;1147;22935;-63
2021/01/07 08:17:25;;;;;;;21.37;6.57;;;;;;;0.16;89.42;99772.15;120352;1147;22924;-63
2021/01/07 08:19:55;;;;;;;22.30;7.90;;;;;;;0.17;89.95;99768.19;120324;1147;22925;-64
2021/01/07 08:22:30;;;;;;;24.67;7.78;;;;;;;0.19;89.76;99763.09;120249;1146;27260;-64
2021/01/07 08:25:00;;;;;;;21.70;7.13;;;;;;;0.21;89.38;99774.42;120522;1146;22924;-63
2021/01/07 08:27:32;;;;;;;26.77;7.58;;;;;;;0.23;89.95;99772.03;120254;1147;27242;-63
2021/01/07 08:30:03;;;;;;;23.40;7.83;;;;;;;0.24;89.71;99777.09;120446;1148;27332;-63
2021/01/07 08:32:43;;;;;;;23.73;8.03;;;;;;;0.27;89.97;99776.23;120399;1148;22946;-64
2021/01/07 08:35:17;;;;;;;24.92;8.80;;;;;;;0.29;89.25;99776.59;120403;1146;22924;-65
2021/01/07 08:37:47;;;;;;;23.63;7.87;;;;;;;0.31;89.86;99774.20;120312;1147;22935;-65
2021/01/07 08:40:21;;;;;;;25.47;9.43;;;;;;;0.34;89.97;99778.86;120285;1147;22948;-63
2021/01/07 08:42:55;;;;;;;27.40;9.97;;;;;;;0.36;89.08;99781.95;120269;1146;24547;-64
2021/01/07 08:45:29;;;;;;;28.10;10.07;;;;;;;0.38;89.80;99776.81;120270;1147;22909;-64
2021/01/07 08:48:08;;;;;;;23.80;8.10;;;;;;;0.40;89.84;99781.88;120265;1146;26534;-63
2021/01/07 08:50:39;;;;;;;22.15;7.55;;;;;;;0.41;89.63;99775.20;120329;1146;23055;-62
2021/01/07 08:53:14;;;;;;;24.90;8.43;;;;;;;0.40;89.40;99782.66;120286;1147;24400;-66
2021/01/07 08:55:51;;;;;;;26.07;8.17;;;;;;;0.41;89.45;99773.25;120355;1147;22996;-63
2021/01/07 08:58:24;;;;;;;20.45;7.40;;;;;;;0.43;89.79;99778.30;120451;1146;23018;-64
2021/01/07 09:00:55;;;;;;;25.00;8.25;;;;;;;0.44;89.17;99779.84;120327;1147;27333;-65
2021/01/07 09:03:37;;;;;;;23.97;8.73;;;;;;;0.45;89.65;99776.70;120328;1148;22965;-63
2021/01/07 09:06:11;;;;;;;23.33;8.63;;;;;;;0.47;89.26;99771.55;120422;1147;22951;-64
2021/01/07 09:08:41;;;;;;;24.70;7.60;;;;;;;0.48;89.75;99772.30;120192;1146;23066;-63
2021/01/07 09:11:12;;;;;;;26.07;8.23;;;;;;;0.49;89.33;99777.40;120423;1146;23374;-64
2021/01/07 09:13:42;;;;;;;26.50;8.83;;;;;;;0.51;89.82;99775.00;120315;1146;22909;-63
2021/01/07 09:16:16;;;;;;;30.15;9.88;;;;;;;0.54;89.32;99778.85;120404;1147;24653;-63
2021/01/07 09:18:46;;;;;;;27.00;8.93;;;;;;;0.57;89.80;99781.55;120401;1146;22925;-63
2021/01/07 09:21:17;;;;;;;24.02;8.65;;;;;;;0.58;89.01;99780.34;120357;1146;23078;-64
2021/01/07 09:23:50;;;;;;;28.90;9.97;;;;;;;0.60;89.31;99777.19;120321;1147;25731;-65
2021/01/07 09:26:30;;;;;;;28.17;8.73;;;;;;;0.62;89.17;99777.55;120231;1148;25052;-65
2021/01/07 09:29:02;;;;;;;24.03;7.90;;;;;;;0.62;89.05;99772.80;120262;1147;26433;-64
2021/01/07 09:31:37;;;;;;;23.83;7.57;;;;;;;0.65;89.15;99777.46;120389;1146;22913;-65
2021/01/07 09:34:07;;;;;;;24.93;8.53;;;;;;;0.67;89.23;99777.03;120504;1147;22966;-66
2021/01/07 09:36:37;;;;;;;;;;;;;;;0.69;89.44;99775.41;120507;1146;22924;-64
2021/01/07 09:39:07;;;;;;;23.87;8.33;;;;;;;0.70;89.02;99774.20;120410;1146;21559;-63
2021/01/07 09:41:36;;;;;;;;;;;;;;;0.74;89.03;99771.41;120310;1147;22929;-63
2021/01/07 09:44:09;;;;;;;27.30;9.70;;;;;;;0.77;89.26;99767.79;120262;1148;21555;-63
2021/01/07 09:46:40;;;;;;;25.77;8.27;;;;;;;0.81;89.22;99774.77;120336;1147;23081;-62
2021/01/07 09:49:10;;;;;;;26.87;9.97;;;;;;;0.83;88.80;99772.37;120209;1147;22999;-61
2021/01/07 09:51:40;;;;;;;24.83;7.87;;;;;;;0.86;88.87;99773.50;120594;1147;27297;-68
2021/01/07 09:54:10;;;;;;;;;;;;;;;0.88;88.94;99778.56;120876;1147;26353;-65
2021/01/07 09:56:41;;;;;;;26.30;9.03;;;;;;;0.88;88.65;99776.59;120308;1147;24514;-65
2021/01/07 09:59:12;;;;;;;24.70;8.57;;;;;;;0.90;89.01;99762.42;120367;1146;24688;-65
2021/01/07 10:01:43;;;;;;;24.67;9.33;;;;;;;0.92;88.92;99768.27;120733;1147;22927;-66
2021/01/07 10:04:14;;;;;;;28.07;11.10;;;;;;;0.97;89.24;99776.81;120565;1146;23064;-66
2021/01/07 10:06:44;;;;;;;27.47;10.23;;;;;;;1.01;89.48;99772.01;120497;1146;23017;-66
2021/01/07 10:09:15;;;;;;;27.45;10.72;;;;;;;1.04;89.17;99765.64;120746;1147;22966;-62
2021/01/07 10:11:48;;;;;;;26.57;9.40;;;;;;;1.09;89.30;99767.90;120283;1147;22935;-61
2021/01/07 10:14:19;;;;;;;27.73;10.10;;;;;;;1.11;89.08;99765.50;120303;1148;22966;-62
2021/01/07 10:16:51;;;;;;;27.80;9.90;;;;;;;1.13;89.33;99765.06;120359;1147;25998;-62
2021/01/07 10:19:22;;;;;;;28.83;9.83;;;;;;;1.15;88.98;99766.19;120300;1146;24731;-62
2021/01/07 10:22:00;;;;;;;31.50;11.50;;;;;;;1.19;88.99;99766.88;120424;1147;22935;-61
2021/01/07 10:24:32;;;;;;;28.60;10.77;;;;;;;1.22;89.15;99768.02;120470;1147;23010;-63
2021/01/07 10:27:04;;;;;;;29.60;11.67;;;;;;;1.23;88.70;99772.30;120423;1147;22927;-62
2021/01/07 10:29:36;;;;;;;29.53;12.00;;;;;;;1.25;89.05;99778.14;120330;1147;24554;-63
2021/01/07 10:32:10;;;;;;;28.97;11.97;;;;;;;1.27;88.84;99779.27;120471;1147;22951;-62
2021/01/07 10:34:42;;;;;;;27.30;11.77;;;;;;;1.28;89.16;99780.80;120283;1147;22872;-62
2021/01/07 10:37:16;;;;;;;29.13;12.17;;;;;;;1.28;88.79;99774.55;120403;1148;22952;-62
2021/01/07 10:39:49;;;;;;;35.73;13.17;;;;;;;1.32;89.22;99777.98;120426;1147;22938;-63
2021/01/07 10:42:19;;;;;;;35.20;12.90;;;;;;;1.35;88.92;99774.37;120524;1147;24590;-62
2021/01/07 10:44:52;;;;;;;29.80;11.90;;;;;;;1.35;88.89;99775.16;120324;1147;23453;-61
2021/01/07 10:47:27;;;;;;;31.90;13.80;;;;;;;1.36;88.72;99773.18;120398;1146;22977;-62
2021/01/07 10:50:03;;;;;;;33.97;13.27;;;;;;;1.39;88.68;99769.56;120283;1147;22929;-63
2021/01/07 10:52:46;;;;;;;31.80;12.00;;;;;;;1.41;88.87;99765.19;120163;1147;27810;-62
2021/01/07 10:55:24;;;;;;;29.07;12.03;;;;;;;1.43;89.17;99770.25;120373;1146;22908;-62
2021/01/07 10:58:28;;;;;;;31.57;13.03;;;;;;;1.43;88.76;99757.27;120231;1147;22925;-63
2021/01/07 11:01:15;;;;;;;31.50;12.73;;;;;;;1.43;88.65;99757.27;120193;1146;23109;-63
2021/01/07 11:04:16;;;;;;;27.97;10.70;;;;;;;1.44;88.32;99761.59;120209;1147;23383;-62
2021/01/07 11:06:53;;;;;;;31.27;12.93;;;;;;;1.47;88.43;99766.22;119689;1151;23084;-62
2021/01/07 11:09:31;;;;;;;33.45;13.60;;;;;;;1.48;88.68;99756.00;120239;1149;26050;-63
2021/01/07 11:12:09;;;;;;;35.27;13.60;;;;;;;1.49;88.56;99761.06;119960;1149;23450;-61
2021/01/07 11:14:48;;;;;;;33.03;13.03;;;;;;;1.50;88.23;99753.59;119931;1149;23086;-61
2021/01/07 11:17:24;;;;;;;29.63;11.83;;;;;;;1.48;88.57;99761.50;120065;1150;27783;-62
2021/01/07 11:19:59;;;;;;;31.97;11.60;;;;;;;1.46;88.32;99759.19;120137;1149;27376;-61
2021/01/07 11:22:31;;;;;;;30.25;11.55;;;;;;;1.47;88.44;99757.19;120031;1150;24602;-62
2021/01/07 11:25:03;;;;;;;27.55;11.60;;;;;;;1.47;87.95;99754.44;120087;1150;24597;-62
2021/01/07 11:27:35;;;;;;;34.37;11.40;;;;;;;1.48;88.41;99750.49;120060;1151;22984;-62
2021/01/07 11:30:07;;;;;;;31.80;12.00;;;;;;;1.47;88.41;99754.44;120076;1149;27230;-62
2021/01/07 11:32:39;;;;;;;32.40;12.47;;;;;;;1.45;88.43;99749.37;120004;1150;24602;-63
2021/01/07 11:35:11;;;;;;;28.50;11.40;;;;;;;1.43;88.05;99753.74;120045;1149;26101;-62
2021/01/07 11:37:59;;;;;;;28.87;12.47;;;;;;;1.45;88.03;99752.12;120019;1150;22935;-62
2021/01/07 11:40:52;;;;;;;25.65;8.55;;;;;;;1.44;88.02;99755.31;120101;1149;24739;-62
2021/01/07 11:43:53;;;;;;;31.90;10.83;;;;;;;1.43;88.32;99759.25;119964;1149;26839;-63
2021/01/07 11:46:24;;;;;;;29.47;11.93;;;;;;;1.42;88.11;99752.99;120003;1150;26382;-62
2021/01/07 11:48:56;;;;;;;;;;;;;;;1.42;87.88;99755.74;120069;1149;25663;-62
2021/01/07 11:51:26;;;;;;;31.73;11.33;;;;;;;1.41;88.31;99750.66;119892;1150;21616;-62